Eriksdale, Canada
Current Conditions -  °F | °C
As of 7:00 AM on Monday 24 Nov 2014 (Local Time) from CYWG Reporting Station
Few Clouds Few Clouds  
Wind Chill: -18°   Ceiling: Unl
Heat Index:   Visibility: 15mi
Dew Point: -4°   Wind: 16mph
Humidity: 78%   Direction: 340°NNW
Pressure: 29.78"   Gusts: 24mph
Location:  50.87°N, 98.1°W
Report Text: CYWG 241300Z 34014G21KT 15SM FEW015 FEW180 M17/M20 A2978 RMK SF1AC2 SF TR SLP105
Loading
Personal Weather Stations






























Interactive Weather Map New forecast layout! Learn more

10-Day Weather Forecast

Advertisements
Track Severe Weather on mobile